This is the latest recevied weather packets stored in our database for station/object UB3AVW-10. If no packets are shown the sender has not sent any weather packets the latest 10 day(s).
| Time | Temp. | Humidity | Pressure | Rain* | Wind** | Luminosity | Snow |
|---|---|---|---|---|---|---|---|
| 1777461999 | 2.78° C | 81% | 992.2 hPa | - | 4.92 m/s, 321° | - | - |
| 1777461696 | 2.22° C | 83% | 992.1 hPa | - | 4.92 m/s, 320° | - | - |
| 1777461393 | 2.22° C | 83% | 992.1 hPa | - | 4.92 m/s, 320° | - | - |
| 1777461090 | 2.22° C | 84% | 992.1 hPa | - | 4.92 m/s, 320° | - | - |
| 1777460786 | 2.22° C | 84% | 992.1 hPa | - | 4.92 m/s, 320° | - | - |
| 1777460483 | 1.67° C | 86% | 992.1 hPa | - | 4.92 m/s, 320° | - | - |
| 1777460180 | 1.67° C | 86% | 992.1 hPa | - | 4.92 m/s, 320° | - | - |
| 1777459877 | 1.67° C | 86% | 992.1 hPa | - | 4.92 m/s, 320° | - | - |
| 1777459574 | 1.67° C | 85% | 991.1 hPa | - | 4.92 m/s, 320° | - | - |
| 1777459271 | 1.67° C | 84% | 991.1 hPa | - | 4.92 m/s, 310° | - | - |
| 1777458968 | 1.67° C | 84% | 991.1 hPa | - | 4.92 m/s, 310° | - | - |
| 1777458664 | 1.67° C | 82% | 991.1 hPa | - | 5.36 m/s, 310° | - | - |
| 1777458361 | 1.67° C | 82% | 991.1 hPa | - | 5.36 m/s, 310° | - | - |
| 1777458058 | 2.22° C | 79% | 991.1 hPa | - | 5.81 m/s, 310° | - | - |
| 1777457755 | 2.78° C | 75% | 991.2 hPa | - | 5.81 m/s, 310° | - | - |
| 1777457451 | 2.78° C | 75% | 991.2 hPa | - | 5.81 m/s, 302° | - | - |
| 1777457148 | 2.78° C | 75% | 991.2 hPa | - | 5.81 m/s, 302° | - | - |
| 1777456845 | 2.78° C | 75% | 991.2 hPa | - | 5.81 m/s, 302° | - | - |
| 1777456541 | 2.78° C | 75% | 991.2 hPa | - | 5.81 m/s, 302° | - | - |
| 1777456238 | 2.22° C | 79% | 991.1 hPa | - | 5.81 m/s, 302° | - | - |
| 1777455935 | 2.22° C | 82% | 990.2 hPa | - | 5.81 m/s, 319° | - | - |
| 1777455632 | 2.22° C | 82% | 990.2 hPa | - | 5.81 m/s, 319° | - | - |
| 1777455329 | 1.11° C | 86% | 990.2 hPa | - | 13.86 m/s, 319° | - | - |
| 1777455113 | 1.11° C | 86% | 990.2 hPa | - | 13.86 m/s, 319° | - | - |
| 1777455026 | 1.11° C | 86% | 990.2 hPa | - | 13.86 m/s, 319° | - | - |
* Rain since midnight (hover to see other rain measurements)
** Current wind speed in m/s (hover to see current wind gust speed)